Time;durP1;ratioP1;P1;durP2;ratioP2;P2;SDS_P1;SDS_P2;PMS_P1;PMS_P2;Temp;Humidity;BMP_temperature;BMP_pressure;BME280_temperature;BME280_humidity;BME280_pressure;Samples;Min_cycle;Max_cycle;Signal;HPM_P1;HPM_P2
2022/10/19 00:01:45;;;;;;;12.98;5.35;;;16.00;99.90;;;;;;4993697;28;20034;-75
2022/10/19 00:04:10;;;;;;;15.32;4.80;;;15.90;99.90;;;;;;4993547;28;20030;-75
2022/10/19 00:06:37;;;;;;;17.27;5.63;;;16.00;99.90;;;;;;4993653;28;20085;-75
2022/10/19 00:09:17;;;;;;;12.88;5.15;;;16.00;99.90;;;;;;4993456;28;20034;-75
2022/10/19 00:11:47;;;;;;;10.27;4.53;;;16.00;99.90;;;;;;4993785;28;20117;-75
2022/10/19 00:14:18;;;;;;;11.65;4.38;;;16.00;99.90;;;;;;4993248;28;20096;-75
2022/10/19 00:16:46;;;;;;;;;;;16.00;99.90;;;;;;4993113;28;20045;-75
2022/10/19 00:19:22;;;;;;;9.10;4.45;;;15.80;99.90;;;;;;4993634;28;19914;-75
2022/10/19 00:21:49;;;;;;;8.05;4.13;;;15.80;99.90;;;;;;4993619;28;20081;-75
2022/10/19 00:24:16;;;;;;;7.18;3.55;;;15.80;99.90;;;;;;4992784;28;20121;-75
2022/10/19 00:26:42;;;;;;;16.65;5.55;;;15.70;99.90;;;;;;4992269;28;20041;-75
2022/10/19 00:29:09;;;;;;;7.93;3.80;;;15.80;99.90;;;;;;4991860;28;20485;-75
2022/10/19 00:31:35;;;;;;;7.50;4.10;;;15.70;99.90;;;;;;4992078;28;20037;-75
2022/10/19 00:34:01;;;;;;;10.70;3.67;;;15.70;99.90;;;;;;4991673;28;20038;-75
2022/10/19 00:36:36;;;;;;;9.57;4.10;;;15.50;99.90;;;;;;4993270;28;20038;-75
2022/10/19 00:39:09;;;;;;;9.63;4.43;;;15.40;99.90;;;;;;4993228;28;20030;-75
2022/10/19 00:41:36;;;;;;;11.18;4.82;;;15.50;99.90;;;;;;4992036;28;20065;-75
2022/10/19 00:44:10;;;;;;;8.55;4.53;;;15.50;99.90;;;;;;4992458;28;20117;-75
2022/10/19 00:46:39;;;;;;;8.45;4.07;;;15.50;99.90;;;;;;4992941;28;20458;-75
2022/10/19 00:49:14;;;;;;;9.57;4.25;;;15.40;99.90;;;;;;4992797;28;20034;-75
2022/10/19 00:51:56;;;;;;;11.32;4.20;;;15.40;99.90;;;;;;4991783;28;20033;-75
2022/10/19 00:54:22;;;;;;;;;;;15.40;99.90;;;;;;4991874;28;20464;-75
2022/10/19 00:56:53;;;;;;;9.10;4.97;;;15.30;99.90;;;;;;4993000;28;20292;-75
2022/10/19 00:59:23;;;;;;;9.27;5.25;;;15.20;99.90;;;;;;4992260;28;20485;-75
2022/10/19 01:01:50;;;;;;;14.15;4.20;;;15.30;99.90;;;;;;4991665;28;20445;-75
2022/10/19 01:04:22;;;;;;;8.45;4.05;;;15.30;99.90;;;;;;4992641;28;20465;-75
2022/10/19 01:06:48;;;;;;;7.68;3.88;;;15.20;99.90;;;;;;5001643;28;20057;-75
2022/10/19 01:09:13;;;;;;;7.50;3.47;;;15.10;99.90;;;;;;4998906;28;20029;-75
2022/10/19 01:12:07;;;;;;;6.75;3.08;;;15.10;99.90;;;;;;5000529;28;20461;-75
2022/10/19 01:15:14;;;;;;;7.72;3.13;;;15.10;99.90;;;;;;4992520;28;20036;-75
2022/10/19 01:18:43;;;;;;;9.75;3.47;;;15.10;99.90;;;;;;5011716;28;20048;-75
2022/10/19 01:21:14;;;;;;;7.50;2.78;;;15.10;99.90;;;;;;4951104;29;20039;-75
2022/10/19 01:24:00;;;;;;;6.63;3.28;;;15.20;99.90;;;;;;4950731;29;20390;-75
2022/10/19 01:27:14;;;;;;;8.07;3.85;;;15.10;99.90;;;;;;4951202;29;20058;-75
2022/10/19 01:30:06;;;;;;;6.90;3.30;;;15.10;99.90;;;;;;4950799;29;20031;-75
2022/10/19 01:32:52;;;;;;;9.43;2.88;;;15.00;99.90;;;;;;4950880;29;20051;-75
2022/10/19 01:35:21;;;;;;;4.55;2.15;;;14.90;99.90;;;;;;4950987;29;20035;-75
2022/10/19 01:38:19;;;;;;;5.53;3.10;;;14.90;99.90;;;;;;4950939;29;20173;-76
2022/10/19 01:41:44;;;;;;;6.70;3.08;;;14.80;99.90;;;;;;4950787;29;20125;-75
2022/10/19 01:44:21;;;;;;;13.88;2.50;;;14.90;99.90;;;;;;4948587;29;20047;-75
2022/10/19 01:46:54;;;;;;;6.90;2.40;;;14.80;99.90;;;;;;4950655;29;20448;-75
2022/10/19 01:49:31;;;;;;;8.73;2.95;;;14.80;99.90;;;;;;4934805;29;20168;-75
2022/10/19 01:52:08;;;;;;;8.00;2.65;;;14.80;99.90;;;;;;4971283;28;20038;-75
2022/10/19 01:54:43;;;;;;;5.63;3.05;;;14.70;99.90;;;;;;4991356;28;20034;-75
2022/10/19 01:57:15;;;;;;;7.13;2.92;;;14.70;99.90;;;;;;4990799;28;20034;-75
2022/10/19 01:59:42;;;;;;;10.27;3.67;;;14.70;99.90;;;;;;4991163;28;20447;-75
2022/10/19 02:02:12;;;;;;;8.70;2.55;;;14.70;99.90;;;;;;4990132;28;20498;-75
2022/10/19 02:04:39;;;;;;;5.85;3.03;;;14.70;99.90;;;;;;4990224;28;20670;-75
2022/10/19 02:07:07;;;;;;;5.55;2.67;;;14.60;99.90;;;;;;4990287;28;20482;-75
2022/10/19 02:09:32;;;;;;;7.45;3.53;;;14.50;99.90;;;;;;4990498;28;20034;-75
2022/10/19 02:12:02;;;;;;;9.23;3.67;;;14.50;99.90;;;;;;4990099;28;20069;-75
2022/10/19 02:14:33;;;;;;;7.07;3.17;;;14.40;99.90;;;;;;4991877;28;20425;-75
2022/10/19 02:17:20;;;;;;;;;;;14.50;99.90;;;;;;5010212;28;20076;-75
2022/10/19 02:19:45;;;;;;;8.25;3.60;;;14.50;99.90;;;;;;5010387;28;19915;-76
2022/10/19 02:22:12;;;;;;;14.65;4.00;;;14.60;99.90;;;;;;5011196;28;20026;-75
2022/10/19 02:24:38;;;;;;;10.20;3.88;;;14.60;99.90;;;;;;5010897;28;20057;-76
2022/10/19 02:27:05;;;;;;;13.90;3.58;;;14.60;99.90;;;;;;5011297;28;20517;-75
2022/10/19 02:29:33;;;;;;;6.35;2.63;;;14.50;99.90;;;;;;5023747;23;21303;-73
2022/10/19 02:31:59;;;;;;;8.02;3.47;;;14.50;99.90;;;;;;5016654;28;20045;-73
2022/10/19 02:34:26;;;;;;;35.47;4.20;;;14.50;99.90;;;;;;5028839;28;20029;-72
2022/10/19 02:36:52;;;;;;;5.97;2.97;;;14.50;99.90;;;;;;5029155;28;20037;-73
2022/10/19 02:39:18;;;;;;;7.57;3.83;;;14.40;99.90;;;;;;5029257;28;20033;-73
2022/10/19 02:42:07;;;;;;;6.07;2.75;;;14.30;99.90;;;;;;5045912;28;20033;-73
2022/10/19 02:44:52;;;;;;;12.00;2.70;;;14.30;99.90;;;;;;5045245;28;20103;-73
2022/10/19 02:47:30;;;;;;;12.07;3.22;;;14.20;99.90;;;;;;5044163;28;20543;-72
2022/10/19 02:49:56;;;;;;;12.65;3.35;;;14.10;99.90;;;;;;5045142;28;20033;-73
2022/10/19 02:52:21;;;;;;;7.35;3.60;;;14.10;99.90;;;;;;5030193;28;20026;-73
2022/10/19 02:54:47;;;;;;;5.63;2.90;;;14.00;99.90;;;;;;5045529;28;20098;-73
2022/10/19 02:57:20;;;;;;;6.63;2.80;;;14.00;99.90;;;;;;5030441;28;20389;-74
2022/10/19 02:59:46;;;;;;;6.35;3.08;;;13.90;99.90;;;;;;5030379;28;20386;-75
2022/10/19 03:02:14;;;;;;;5.85;3.00;;;13.90;99.90;;;;;;5045121;28;20037;-75
2022/10/19 03:04:41;;;;;;;4.95;2.38;;;13.90;99.90;;;;;;5030385;28;20045;-75
2022/10/19 03:07:13;;;;;;;5.32;2.95;;;13.80;99.90;;;;;;5045733;28;20476;-75
2022/10/19 03:09:40;;;;;;;8.52;3.30;;;13.80;99.90;;;;;;5045243;28;20026;-75
2022/10/19 03:12:06;;;;;;;6.53;3.25;;;13.80;99.90;;;;;;5033688;28;20033;-75
2022/10/19 03:14:32;;;;;;;6.78;2.63;;;13.70;99.90;;;;;;5047061;28;20041;-75
2022/10/19 03:16:58;;;;;;;8.95;2.67;;;13.60;99.90;;;;;;5012957;28;20116;-73
2022/10/19 03:19:24;;;;;;;7.07;2.75;;;13.70;99.90;;;;;;5013913;28;20054;-73
2022/10/19 03:21:49;;;;;;;5.90;3.20;;;13.70;99.90;;;;;;5013998;28;20421;-73
2022/10/19 03:24:15;;;;;;;7.32;3.10;;;13.70;99.90;;;;;;4995719;28;20026;-72
2022/10/19 03:26:41;;;;;;;5.95;3.13;;;13.80;99.90;;;;;;5013015;28;20026;-73
2022/10/19 03:29:07;;;;;;;5.75;2.63;;;13.80;99.90;;;;;;5012584;28;20040;-73
2022/10/19 03:31:33;;;;;;;5.88;3.60;;;13.80;99.90;;;;;;5012457;28;20115;-74
2022/10/19 03:33:58;;;;;;;8.50;4.00;;;13.80;99.90;;;;;;5012430;28;20073;-74
2022/10/19 03:36:31;;;;;;;5.65;3.25;;;13.80;99.90;;;;;;5013990;28;20136;-73
2022/10/19 03:39:01;;;;;;;7.65;2.88;;;13.80;99.90;;;;;;5005361;28;20063;-73
2022/10/19 03:41:30;;;;;;;7.90;3.43;;;13.80;99.90;;;;;;5001477;28;20133;-74
2022/10/19 03:43:56;;;;;;;6.45;2.95;;;13.90;99.90;;;;;;4996241;28;20061;-74
2022/10/19 03:46:22;;;;;;;5.88;3.05;;;13.90;99.90;;;;;;5007099;28;20397;-74
2022/10/19 03:48:49;;;;;;;9.52;4.07;;;13.90;99.90;;;;;;4997680;28;20490;-79
2022/10/19 03:51:24;;;;;;;8.35;3.88;;;13.90;99.90;;;;;;4992625;28;20109;-78
2022/10/19 03:54:13;;;;;;;7.28;3.90;;;14.00;99.90;;;;;;4992531;28;20038;-78
2022/10/19 03:56:39;;;;;;;19.85;4.65;;;14.00;99.90;;;;;;4993972;28;20027;-78
2022/10/19 03:59:06;;;;;;;8.23;3.00;;;14.00;99.90;;;;;;4976317;28;20521;-77
2022/10/19 04:01:37;;;;;;;5.78;3.35;;;13.90;99.90;;;;;;4992357;28;20126;-78
2022/10/19 04:04:08;;;;;;;10.15;3.58;;;13.90;99.90;;;;;;4993242;28;20038;-79
2022/10/19 04:06:39;;;;;;;9.15;3.78;;;14.00;99.90;;;;;;4993859;28;20120;-79
2022/10/19 04:09:07;;;;;;;8.10;3.10;;;13.90;99.90;;;;;;4992082;28;20438;-78
2022/10/19 04:11:34;;;;;;;7.13;3.22;;;13.90;99.90;;;;;;4993145;28;20037;-77
2022/10/19 04:14:01;;;;;;;5.45;2.83;;;13.80;99.90;;;;;;4993348;28;20027;-77
2022/10/19 04:16:29;;;;;;;7.55;3.42;;;13.90;99.90;;;;;;5010247;28;20033;-77
2022/10/19 04:18:56;;;;;;;8.35;3.72;;;14.00;99.90;;;;;;5010948;28;20478;-75
2022/10/19 04:21:29;;;;;;;8.20;3.05;;;13.90;99.90;;;;;;5011351;28;20036;-76
2022/10/19 04:24:04;;;;;;;9.55;3.75;;;13.90;99.90;;;;;;5011024;28;20029;-75
2022/10/19 04:26:30;;;;;;;9.15;4.68;;;13.90;99.90;;;;;;5013021;28;20026;-76
2022/10/19 04:28:57;;;;;;;9.18;3.67;;;13.70;99.90;;;;;;4994598;28;20030;-77
2022/10/19 04:31:23;;;;;;;19.92;9.98;;;13.80;99.90;;;;;;5012469;28;20030;-76
2022/10/19 04:33:49;;;;;;;11.23;5.22;;;13.70;99.90;;;;;;5010952;28;20034;-76
2022/10/19 04:36:15;;;;;;;21.60;9.95;;;13.70;99.90;;;;;;5012621;28;20093;-80
2022/10/19 04:38:41;;;;;;;11.18;4.13;;;13.90;99.90;;;;;;4998641;28;20026;-75
2022/10/19 04:41:13;;;;;;;13.80;5.28;;;14.00;99.90;;;;;;4991594;28;20665;-74
2022/10/19 04:43:39;;;;;;;7.05;3.65;;;14.00;99.90;;;;;;4985227;28;20438;-74
2022/10/19 04:46:11;;;;;;;10.45;4.40;;;14.00;99.90;;;;;;5002848;28;20093;-77
2022/10/19 04:48:39;;;;;;;9.48;4.05;;;14.00;99.90;;;;;;5003287;28;20109;-78
2022/10/19 04:51:06;;;;;;;9.55;4.00;;;13.90;99.90;;;;;;5011756;28;20030;-76
2022/10/19 04:53:33;;;;;;;10.60;4.53;;;13.90;99.90;;;;;;5010380;28;20079;-76
2022/10/19 04:55:59;;;;;;;8.80;3.42;;;13.80;99.90;;;;;;5011966;28;20033;-77
2022/10/19 04:58:25;;;;;;;8.93;3.45;;;13.80;99.90;;;;;;5004896;28;20022;-77
2022/10/19 05:00:51;;;;;;;8.45;4.03;;;13.80;99.90;;;;;;4990911;28;20042;-77
2022/10/19 05:03:17;;;;;;;10.30;3.85;;;13.80;99.90;;;;;;4991608;28;20512;-77
2022/10/19 05:05:43;;;;;;;9.88;4.80;;;13.80;99.90;;;;;;4991867;28;20077;-77
2022/10/19 05:08:10;;;;;;;9.30;3.53;;;13.80;99.90;;;;;;4996029;28;20033;-77
2022/10/19 05:10:36;;;;;;;7.55;3.92;;;13.80;99.90;;;;;;4990790;28;20036;-77
2022/10/19 05:13:03;;;;;;;7.53;3.47;;;13.90;99.90;;;;;;4990549;28;20038;-77
2022/10/19 05:15:29;;;;;;;7.22;3.08;;;13.90;99.90;;;;;;5000790;28;20092;-77
2022/10/19 05:17:55;;;;;;;6.85;3.47;;;13.90;99.90;;;;;;5010357;28;20069;-76
2022/10/19 05:20:22;;;;;;;7.30;3.58;;;13.80;99.90;;;;;;5009806;28;20030;-77
2022/10/19 05:22:47;;;;;;;5.38;2.83;;;13.80;99.90;;;;;;5010118;28;20062;-77
2022/10/19 05:25:13;;;;;;;4.75;2.55;;;13.70;99.90;;;;;;5010864;28;20033;-76
2022/10/19 05:27:39;;;;;;;7.90;3.58;;;13.60;99.90;;;;;;5010182;28;20030;-76
2022/10/19 05:30:07;;;;;;;4.70;2.33;;;13.60;99.90;;;;;;5009964;28;20053;-76
2022/10/19 05:32:33;;;;;;;8.13;3.70;;;13.60;99.90;;;;;;5011243;28;20090;-77
2022/10/19 05:34:59;;;;;;;8.80;3.33;;;13.60;99.90;;;;;;5008574;28;20486;-77
2022/10/19 05:37:25;;;;;;;7.13;3.00;;;13.60;99.90;;;;;;5008079;28;20091;-75
2022/10/19 05:39:51;;;;;;;4.30;2.47;;;13.50;99.90;;;;;;4995043;28;20157;-75
2022/10/19 05:42:16;;;;;;;8.25;3.55;;;13.50;99.90;;;;;;5008857;28;20110;-75
2022/10/19 05:44:42;;;;;;;5.57;3.28;;;13.50;99.90;;;;;;5010842;28;20111;-75
2022/10/19 05:47:08;;;;;;;5.97;3.08;;;13.50;99.90;;;;;;5010806;28;20041;-76
2022/10/19 05:49:33;;;;;;;6.20;3.30;;;13.50;99.90;;;;;;5010827;28;20037;-77
2022/10/19 05:51:59;;;;;;;8.52;3.33;;;13.50;99.90;;;;;;5011282;28;20030;-76
2022/10/19 05:54:25;;;;;;;5.80;2.83;;;13.50;99.90;;;;;;5009238;28;20041;-77
2022/10/19 05:56:51;;;;;;;7.40;3.00;;;13.50;99.90;;;;;;5010628;28;20478;-76
2022/10/19 05:59:19;;;;;;;6.68;3.55;;;13.50;99.90;;;;;;5010480;28;20034;-76
2022/10/19 06:01:46;;;;;;;12.40;3.80;;;13.50;99.90;;;;;;5007541;28;20056;-75
2022/10/19 06:04:13;;;;;;;5.80;2.92;;;13.50;99.90;;;;;;5010335;28;20037;-76
2022/10/19 06:06:41;;;;;;;8.77;3.15;;;13.50;99.90;;;;;;5025841;28;20212;-73
2022/10/19 06:09:08;;;;;;;5.30;2.47;;;13.60;99.90;;;;;;4994477;28;20144;-74
2022/10/19 06:11:38;;;;;;;7.82;3.00;;;13.70;99.90;;;;;;4989857;28;20031;-76
2022/10/19 06:14:09;;;;;;;8.32;3.70;;;13.60;99.90;;;;;;4990808;28;20080;-76
2022/10/19 06:16:35;;;;;;;;;;;13.60;99.90;;;;;;4990223;28;20105;-76
2022/10/19 06:19:03;;;;;;;6.00;3.10;;;13.50;99.90;;;;;;4990002;28;19942;-76
2022/10/19 06:21:30;;;;;;;5.50;2.25;;;13.40;99.90;;;;;;4990838;28;20100;-77
2022/10/19 06:23:59;;;;;;;7.40;3.38;;;13.50;99.90;;;;;;4989972;28;20053;-76
2022/10/19 06:26:26;;;;;;;9.52;3.72;;;13.50;99.90;;;;;;4989537;28;20061;-77
2022/10/19 06:28:56;;;;;;;3.75;2.17;;;13.50;99.90;;;;;;4989059;28;20022;-77
2022/10/19 06:31:22;;;;;;;8.32;3.47;;;13.50;99.90;;;;;;4990567;28;20089;-76
2022/10/19 06:33:48;;;;;;;7.97;3.53;;;13.40;99.90;;;;;;4990204;28;20031;-76
2022/10/19 06:36:18;;;;;;;7.47;3.63;;;13.50;99.90;;;;;;4989062;28;20026;-77
2022/10/19 06:38:45;;;;;;;7.53;3.17;;;13.60;99.90;;;;;;5002629;28;20057;-83
2022/10/19 06:41:11;;;;;;;4.97;2.80;;;13.60;99.90;;;;;;5010741;28;20080;-81
2022/10/19 06:43:37;;;;;;;8.48;3.03;;;13.60;99.90;;;;;;4992542;28;20433;-72
2022/10/19 06:46:08;;;;;;;5.50;3.00;;;13.70;99.90;;;;;;5012448;28;20026;-73
2022/10/19 06:48:34;;;;;;;7.40;2.80;;;13.60;99.90;;;;;;5012846;28;20036;-73
2022/10/19 06:51:03;;;;;;;5.97;3.35;;;13.70;99.90;;;;;;5012581;28;20033;-73
2022/10/19 06:53:29;;;;;;;7.15;3.10;;;13.70;99.90;;;;;;5012580;28;20033;-73
2022/10/19 06:55:59;;;;;;;7.55;3.40;;;13.70;99.90;;;;;;5012671;28;20026;-73
2022/10/19 06:58:26;;;;;;;4.97;2.72;;;13.80;99.90;;;;;;5014165;28;20038;-73
2022/10/19 07:00:57;;;;;;;4.93;2.55;;;13.80;99.90;;;;;;5014068;28;20040;-73
2022/10/19 07:03:28;;;;;;;6.00;2.83;;;13.80;99.90;;;;;;5012835;28;20404;-72
2022/10/19 07:05:59;;;;;;;7.90;3.38;;;13.90;99.90;;;;;;5013850;28;20037;-72
2022/10/19 07:08:27;;;;;;;3.95;2.60;;;13.90;99.90;;;;;;5013813;28;20041;-73
2022/10/19 07:10:57;;;;;;;6.55;3.03;;;13.90;99.90;;;;;;5012647;28;20030;-73
2022/10/19 07:13:24;;;;;;;4.25;2.22;;;13.90;99.90;;;;;;5012345;28;20044;-73
2022/10/19 07:16:05;;;;;;;5.40;2.53;;;14.00;99.90;;;;;;5012004;28;20037;-73
2022/10/19 07:18:35;;;;;;;3.95;2.08;;;14.00;99.90;;;;;;5011333;28;20030;-73
2022/10/19 07:21:05;;;;;;;8.30;3.70;;;14.10;99.90;;;;;;5012650;28;20041;-73
2022/10/19 07:23:33;;;;;;;7.10;2.85;;;14.10;99.90;;;;;;5013287;28;20033;-73
2022/10/19 07:26:08;;;;;;;7.93;3.42;;;14.20;99.90;;;;;;5013748;28;20404;-73
2022/10/19 07:28:34;;;;;;;5.85;3.03;;;14.30;99.90;;;;;;5013754;28;20026;-73
2022/10/19 07:31:09;;;;;;;6.10;3.63;;;14.30;99.90;;;;;;5013445;28;20034;-73
2022/10/19 07:33:35;;;;;;;8.52;3.42;;;14.20;99.90;;;;;;5012903;28;20045;-72
2022/10/19 07:36:06;;;;;;;4.75;2.38;;;14.20;99.90;;;;;;5008748;28;20030;-73
2022/10/19 07:38:34;;;;;;;6.90;3.35;;;14.10;99.90;;;;;;4992697;28;20133;-72
2022/10/19 07:41:03;;;;;;;5.63;3.00;;;14.00;99.90;;;;;;4992502;28;20049;-72
2022/10/19 07:43:29;;;;;;;7.22;2.75;;;14.10;99.90;;;;;;4994114;28;20030;-73
2022/10/19 07:46:05;;;;;;;9.77;2.67;;;14.00;99.90;;;;;;4992808;28;20034;-73
2022/10/19 07:48:31;;;;;;;7.97;3.28;;;14.10;99.90;;;;;;4992835;28;20030;-73
2022/10/19 07:50:57;;;;;;;5.72;3.45;;;14.20;99.90;;;;;;4993647;28;20033;-73
2022/10/19 07:53:23;;;;;;;4.97;2.63;;;14.10;99.90;;;;;;4993008;28;20053;-73
2022/10/19 07:55:49;;;;;;;5.00;2.88;;;14.10;99.90;;;;;;4992350;28;20113;-73
2022/10/19 07:58:14;;;;;;;7.25;3.05;;;14.30;99.90;;;;;;4992474;28;20110;-73
2022/10/19 08:00:40;;;;;;;8.70;3.72;;;14.10;99.90;;;;;;4993504;28;20113;-73
2022/10/19 08:03:06;;;;;;;7.95;4.13;;;14.10;99.90;;;;;;4993196;28;20042;-73
2022/10/19 08:05:33;;;;;;;7.53;3.78;;;14.10;99.90;;;;;;4993506;28;20043;-73
2022/10/19 08:07:59;;;;;;;6.82;3.00;;;14.30;99.90;;;;;;4993171;28;20474;-73
2022/10/19 08:10:24;;;;;;;14.48;4.28;;;14.40;99.90;;;;;;4991958;28;20026;-72
2022/10/19 08:12:50;;;;;;;8.45;4.28;;;14.60;99.90;;;;;;4992979;28;20027;-73
2022/10/19 08:15:16;;;;;;;7.60;4.20;;;14.60;99.90;;;;;;4993112;28;20034;-73
2022/10/19 08:17:41;;;;;;;7.57;3.88;;;14.70;99.90;;;;;;4993232;28;20109;-73
2022/10/19 08:20:08;;;;;;;9.60;4.47;;;14.80;99.90;;;;;;4992878;28;20040;-73
2022/10/19 08:22:34;;;;;;;5.75;3.78;;;14.70;99.90;;;;;;4992855;28;20062;-72
2022/10/19 08:25:00;;;;;;;9.88;4.85;;;14.60;99.90;;;;;;4993039;28;20073;-73
2022/10/19 08:27:25;;;;;;;8.25;4.43;;;14.70;99.90;;;;;;4992997;28;20040;-73
2022/10/19 08:29:51;;;;;;;8.07;4.57;;;14.90;99.90;;;;;;4992839;28;20402;-73
2022/10/19 08:32:17;;;;;;;9.85;5.53;;;15.20;99.90;;;;;;4992255;28;20085;-73
2022/10/19 08:34:43;;;;;;;9.45;4.70;;;15.30;99.90;;;;;;4991728;28;20030;-72
2022/10/19 08:37:09;;;;;;;7.70;3.88;;;15.10;99.90;;;;;;4991074;28;20034;-70
2022/10/19 08:39:35;;;;;;;8.77;4.70;;;14.90;99.90;;;;;;4991526;28;20036;-72
2022/10/19 08:42:18;;;;;;;6.47;3.88;;;14.90;99.90;;;;;;4992994;28;20062;-72
2022/10/19 08:45:38;;;;;;;8.13;4.22;;;15.00;99.90;;;;;;4991498;28;20034;-71
2022/10/19 08:48:27;;;;;;;7.57;4.75;;;15.00;99.90;;;;;;4992749;28;20033;-71
2022/10/19 08:50:55;;;;;;;7.47;3.15;;;14.90;99.90;;;;;;4992497;28;20521;-71
2022/10/19 08:53:46;;;;;;;11.20;4.38;;;14.70;99.90;;;;;;4999234;28;20033;-70
2022/10/19 08:56:35;;;;;;;18.08;4.50;;;14.70;99.90;;;;;;4998778;28;20121;-71
2022/10/19 08:59:24;;;;;;;7.55;3.90;;;14.80;99.90;;;;;;5007255;28;20031;-72
2022/10/19 09:02:03;;;;;;;10.90;4.22;;;15.00;99.90;;;;;;4991417;28;20130;-71
2022/10/19 09:04:53;;;;;;;12.20;3.97;;;15.00;99.90;;;;;;4990889;28;20066;-71
2022/10/19 09:07:33;;;;;;;13.13;3.72;;;15.20;99.90;;;;;;4992328;28;20103;-71
2022/10/19 09:10:13;;;;;;;9.82;4.03;;;15.30;99.90;;;;;;5010344;28;20113;-71
2022/10/19 09:13:10;;;;;;;13.25;5.20;;;15.20;99.90;;;;;;5011530;28;20555;-71
2022/10/19 09:15:49;;;;;;;12.10;5.75;;;15.40;99.90;;;;;;5010100;28;20071;-71
2022/10/19 09:18:29;;;;;;;7.00;3.63;;;15.10;99.90;;;;;;5010374;28;20080;-71
2022/10/19 09:21:13;;;;;;;8.43;4.45;;;15.10;99.90;;;;;;5010491;28;20034;-72
2022/10/19 09:24:05;;;;;;;9.10;4.30;;;15.20;99.90;;;;;;5009816;28;20029;-71
2022/10/19 09:26:41;;;;;;;9.38;4.00;;;15.40;99.90;;;;;;5011861;28;20517;-72
2022/10/19 09:29:21;;;;;;;10.95;6.22;;;15.40;99.90;;;;;;5011175;28;20087;-72
2022/10/19 09:31:54;;;;;;;6.90;3.92;;;15.10;99.90;;;;;;5011579;28;20033;-72
2022/10/19 09:34:32;;;;;;;9.05;3.95;;;15.00;99.90;;;;;;5009858;28;20086;-71
2022/10/19 09:36:59;;;;;;;12.07;5.10;;;15.10;99.90;;;;;;4996691;28;20034;-72
2022/10/19 09:39:28;;;;;;;10.98;4.50;;;15.30;99.90;;;;;;5000499;28;20033;-71
2022/10/19 09:42:23;;;;;;;9.35;4.70;;;15.10;99.90;;;;;;5011427;28;20041;-71
2022/10/19 09:44:51;;;;;;;5.75;3.30;;;15.00;99.90;;;;;;5006485;28;20026;-71
2022/10/19 09:47:41;;;;;;;6.70;3.72;;;15.50;99.90;;;;;;5009229;28;20116;-72
2022/10/19 09:50:25;;;;;;;5.63;3.40;;;15.60;99.90;;;;;;5009685;28;20030;-72
2022/10/19 09:52:55;;;;;;;6.47;3.80;;;15.90;99.90;;;;;;5009662;28;20030;-72
2022/10/19 09:55:35;;;;;;;7.38;4.07;;;15.80;99.90;;;;;;5009682;28;20482;-71
2022/10/19 09:58:16;;;;;;;4.50;2.83;;;15.60;99.90;;;;;;5011067;28;20065;-71
2022/10/19 10:00:44;;;;;;;14.77;3.67;;;15.70;99.90;;;;;;5010810;28;20038;-71
2022/10/19 10:03:39;;;;;;;4.85;2.72;;;16.10;99.90;;;;;;5009316;28;20028;-71
2022/10/19 10:06:14;;;;;;;7.28;3.28;;;16.00;99.90;;;;;;5009759;28;20046;-71
2022/10/19 10:08:57;;;;;;;7.00;2.90;;;15.70;99.90;;;;;;4996984;28;20363;-71
2022/10/19 10:11:31;;;;;;;9.35;3.90;;;16.00;99.90;;;;;;4989916;28;20027;-72
2022/10/19 10:14:05;;;;;;;7.25;3.15;;;16.10;99.90;;;;;;4990725;28;20042;-72
2022/10/19 10:16:34;;;;;;;7.22;3.50;;;16.50;99.90;;;;;;4990120;28;20034;-72
2022/10/19 10:19:06;;;;;;;6.40;3.17;;;16.60;99.90;;;;;;4989846;28;20026;-72
2022/10/19 10:21:44;;;;;;;11.63;3.10;;;16.20;99.90;;;;;;4989546;28;20129;-73
2022/10/19 10:24:10;;;;;;;5.07;2.60;;;16.50;99.90;;;;;;4989480;28;20390;-72
2022/10/19 10:26:43;;;;;;;9.50;2.83;;;17.20;99.90;;;;;;4991066;28;20034;-73
2022/10/19 10:29:23;;;;;;;10.88;3.58;;;18.00;99.90;;;;;;4990070;28;20482;-72
2022/10/19 10:32:11;;;;;;;5.40;3.00;;;18.10;99.90;;;;;;4990836;28;20031;-73
2022/10/19 10:34:43;;;;;;;7.72;3.17;;;18.70;99.90;;;;;;4992669;28;20039;-76
2022/10/19 10:37:27;;;;;;;6.95;2.38;;;19.20;99.90;;;;;;4989694;28;20030;-77
2022/10/19 10:39:56;;;;;;;6.32;1.83;;;20.40;99.90;;;;;;4991049;28;20042;-75
2022/10/19 10:42:34;;;;;;;5.15;2.80;;;20.10;99.90;;;;;;4989324;28;20031;-75
2022/10/19 10:45:01;;;;;;;5.95;2.67;;;19.80;99.90;;;;;;4989571;28;20046;-73
2022/10/19 10:47:28;;;;;;;4.00;2.50;;;18.60;99.90;;;;;;4989476;28;20401;-74
2022/10/19 10:50:02;;;;;;;5.10;2.70;;;20.00;99.90;;;;;;4991042;28;20048;-73
2022/10/19 10:52:30;;;;;;;4.68;2.20;;;19.80;99.90;;;;;;4990668;28;20129;-74
2022/10/19 10:55:22;;;;;;;3.90;2.00;;;20.00;99.90;;;;;;4990653;28;20073;-74
2022/10/19 10:57:53;;;;;;;5.03;2.25;;;20.80;99.90;;;;;;4990423;28;20050;-73
2022/10/19 11:00:22;;;;;;;4.78;2.20;;;19.10;99.90;;;;;;4989459;28;20062;-72
2022/10/19 11:03:03;;;;;;;3.38;1.73;;;18.80;99.90;;;;;;4990536;28;20026;-72
2022/10/19 11:05:44;;;;;;;4.75;2.20;;;19.40;99.90;;;;;;4990602;28;20057;-74
2022/10/19 11:08:32;;;;;;;7.90;1.80;;;19.20;99.90;;;;;;4989717;28;20042;-73
2022/10/19 11:11:14;;;;;;;4.40;2.15;;;18.70;99.90;;;;;;4990583;28;20030;-73
2022/10/19 11:13:54;;;;;;;5.57;2.28;;;18.80;99.90;;;;;;4989196;28;20394;-73
2022/10/19 11:16:30;;;;;;;4.78;1.88;;;18.80;99.90;;;;;;4990516;28;20038;-73
2022/10/19 11:19:11;;;;;;;9.55;2.00;;;19.20;99.90;;;;;;4989331;28;20104;-74
2022/10/19 11:22:05;;;;;;;4.77;1.63;;;20.10;99.90;;;;;;4990746;28;20092;-74
2022/10/19 11:24:47;;;;;;;3.63;1.70;;;20.90;99.90;;;;;;4989301;28;20609;-74
2022/10/19 11:27:44;;;;;;;5.72;1.80;;;20.90;99.90;;;;;;4989060;28;20066;-74
2022/10/19 11:30:20;;;;;;;2.35;1.10;;;21.60;99.90;;;;;;4990314;28;20034;-74
2022/10/19 11:33:06;;;;;;;2.50;1.40;;;20.20;99.90;;;;;;4990539;28;20029;-75
2022/10/19 11:36:00;;;;;;;2.75;1.10;;;20.80;99.90;;;;;;4993278;28;20348;-75
2022/10/19 11:39:14;;;;;;;1.67;0.90;;;22.40;99.90;;;;;;4982366;28;20033;-74
2022/10/19 11:41:54;;;;;;;4.57;1.38;;;24.00;99.90;;;;;;4982330;28;20045;-75
2022/10/19 11:44:44;;;;;;;2.13;0.80;;;22.50;99.90;;;;;;5011778;28;20080;-75
2022/10/19 11:47:42;;;;;;;3.57;0.90;;;21.70;99.90;;;;;;5012143;28;20022;-74
2022/10/19 11:50:20;;;;;;;2.65;1.23;;;21.10;99.90;;;;;;5010123;28;20040;-74
2022/10/19 11:53:08;;;;;;;1.67;0.90;;;20.30;99.90;;;;;;5012061;28;20026;-69
2022/10/19 11:55:50;;;;;;;4.05;1.65;;;19.70;99.90;;;;;;5012019;28;20052;-69
2022/10/19 11:58:25;;;;;;;1.08;0.63;;;20.30;99.90;;;;;;5011751;28;20029;-68
2022/10/19 12:01:32;;;;;;;2.22;1.23;;;20.40;99.90;;;;;;5012821;28;20037;-68
2022/10/19 12:05:00;;;;;;;2.55;0.85;;;20.80;99.90;;;;;;5012068;28;20063;-68
2022/10/19 12:08:03;;;;;;;2.53;1.20;;;20.80;99.90;;;;;;4992117;28;20089;-66
2022/10/19 12:10:51;;;;;;;6.25;1.20;;;20.70;99.90;;;;;;5012741;28;20540;-68
2022/10/19 12:13:26;;;;;;;1.45;0.80;;;20.10;99.90;;;;;;5012463;28;20498;-68
2022/10/19 12:15:55;;;;;;;1.38;0.82;;;20.10;99.90;;;;;;5012725;28;20029;-68
2022/10/19 12:18:52;;;;;;;1.20;0.68;;;20.20;99.90;;;;;;5011503;28;20525;-68
2022/10/19 12:21:33;;;;;;;1.35;0.70;;;21.00;99.90;;;;;;5012733;28;20065;-68
2022/10/19 12:24:02;;;;;;;2.83;1.10;;;20.70;99.90;;;;;;5007193;28;20050;-69
2022/10/19 12:26:33;;;;;;;1.38;0.93;;;20.40;99.90;;;;;;4992869;28;20042;-68
2022/10/19 12:29:05;;;;;;;1.38;0.82;;;19.80;99.90;;;;;;4991854;28;20034;-67
2022/10/19 12:31:31;;;;;;;0.57;0.50;;;19.50;99.90;;;;;;4991393;28;20040;-68
2022/10/19 12:34:24;;;;;;;1.88;0.77;;;19.40;99.90;;;;;;4991476;28;20397;-67
2022/10/19 12:37:20;;;;;;;2.20;0.88;;;19.70;99.90;;;;;;4991481;28;20476;-67
2022/10/19 12:40:11;;;;;;;2.03;1.00;;;20.30;99.90;;;;;;4991250;28;20034;-66
2022/10/19 12:42:59;;;;;;;;;;;20.80;99.90;;;;;;4992455;28;20512;-66
2022/10/19 12:45:40;;;;;;;10.43;1.77;;;20.80;99.90;;;;;;4992638;28;19924;-66
2022/10/19 12:48:11;;;;;;;1.30;0.75;;;20.80;99.90;;;;;;4990811;28;20087;-66
2022/10/19 12:50:49;;;;;;;1.60;0.60;;;20.90;99.90;;;;;;4992111;28;20034;-66
2022/10/19 12:53:26;;;;;;;1.80;0.98;;;21.20;99.90;;;;;;4991908;28;20026;-65
2022/10/19 12:56:25;;;;;;;1.77;1.00;;;20.70;99.90;;;;;;4992208;28;20038;-65
2022/10/19 12:59:00;;;;;;;0.73;0.52;;;20.40;99.90;;;;;;5006590;28;20113;-65
2022/10/19 13:01:35;;;;;;;1.88;0.70;;;20.70;99.90;;;;;;4991209;28;20057;-65
2022/10/19 13:04:19;;;;;;;1.55;0.82;;;20.70;99.90;;;;;;4992212;28;20085;-65
2022/10/19 13:06:51;;;;;;;3.58;0.90;;;21.20;99.90;;;;;;4991414;28;20030;-65
2022/10/19 13:09:35;;;;;;;0.95;0.60;;;20.60;99.90;;;;;;4991781;28;20045;-65
2022/10/19 13:12:16;;;;;;;2.15;1.05;;;20.20;99.90;;;;;;4991146;28;20030;-65
2022/10/19 13:15:02;;;;;;;2.22;1.20;;;20.20;99.90;;;;;;4992140;28;20033;-66
2022/10/19 13:17:37;;;;;;;2.15;1.10;;;19.90;99.90;;;;;;4992021;28;20130;-67
2022/10/19 13:20:14;;;;;;;2.05;1.15;;;19.90;99.90;;;;;;4991940;28;20034;-66